createdAt,value
2023-03-07T00:03:03.541Z,99416.63
2023-03-07T00:08:05.929Z,99409.81
2023-03-07T00:13:09.059Z,99405.19
2023-03-07T00:18:11.105Z,99402.41
2023-03-07T00:23:13.181Z,99402.53
2023-03-07T00:28:16.010Z,99395.50
2023-03-07T00:33:18.065Z,99394.59
2023-03-07T00:38:20.000Z,99396.28
2023-03-07T00:43:22.195Z,99390.97
2023-03-07T00:48:24.750Z,99394.59
2023-03-07T00:53:26.988Z,99389.47
2023-03-07T00:58:30.982Z,99373.50
2023-03-07T01:03:34.521Z,99376.97
2023-03-07T01:08:36.657Z,99376.13
2023-03-07T01:13:38.753Z,99376.97
2023-03-07T01:18:40.919Z,99371.88
2023-03-07T01:23:43.122Z,99369.13
2023-03-07T01:28:45.822Z,99372.53
2023-03-07T01:33:52.795Z,99355.78
2023-03-07T01:38:56.636Z,99354.94
2023-03-07T01:44:03.245Z,99341.81
2023-03-07T01:49:29.893Z,99342.84
2023-03-07T01:54:34.841Z,99332.16
2023-03-07T01:59:44.900Z,99324.22
2023-03-07T02:04:53.235Z,99311.00
2023-03-07T02:09:57.533Z,99302.09
2023-03-07T02:14:59.993Z,99293.22
2023-03-07T02:20:34.896Z,99292.34
2023-03-07T02:25:47.708Z,99288.94
2023-03-07T02:30:55.185Z,99293.22
2023-03-07T02:36:00.753Z,99279.22
2023-03-07T02:41:04.389Z,99271.28
2023-03-07T02:46:06.614Z,99267.66
2023-03-07T02:51:08.653Z,99275.50
2023-03-07T02:56:11.451Z,99264.16
2023-03-07T03:01:13.724Z,99261.53
2023-03-07T03:06:15.685Z,99261.53
2023-03-07T03:11:21.684Z,99263.19
2023-03-07T03:16:23.698Z,99252.81
2023-03-07T03:21:26.011Z,99249.22
2023-03-07T03:26:28.213Z,99243.91
2023-03-07T03:31:30.865Z,99244.78
2023-03-07T03:36:32.695Z,99243.91
2023-03-07T03:41:34.599Z,99238.63
2023-03-07T03:46:37.415Z,99230.81
2023-03-07T03:51:39.326Z,99230.59
2023-03-07T03:56:41.408Z,99229.09
2023-03-07T04:01:43.499Z,99229.84
2023-03-07T04:06:45.450Z,99217.56
2023-03-07T04:11:47.281Z,99208.66
2023-03-07T04:16:49.531Z,99202.50
2023-03-07T04:21:51.530Z,99204.41
2023-03-07T04:26:53.246Z,99190.22
2023-03-07T04:31:55.221Z,99185.66
2023-03-07T04:36:57.254Z,99182.09
2023-03-07T04:41:59.269Z,99173.56
2023-03-07T04:47:01.149Z,99167.66
2023-03-07T04:52:03.070Z,99167.53
2023-03-07T04:57:05.254Z,99162.78
2023-03-07T05:02:08.569Z,99156.22
2023-03-07T05:07:10.636Z,99155.34
2023-03-07T05:12:12.681Z,99150.28
2023-03-07T05:17:15.673Z,99132.69
2023-03-07T05:22:17.674Z,99141.50
2023-03-07T05:27:19.794Z,99138.84
2023-03-07T05:32:21.931Z,99136.31
2023-03-07T05:37:23.899Z,99137.97
2023-03-07T05:42:26.090Z,99136.81
2023-03-07T05:47:28.157Z,99130.78
2023-03-07T05:52:30.052Z,99140.63
2023-03-07T05:57:32.170Z,99127.59
2023-03-07T06:02:34.146Z,99132.81
2023-03-07T06:07:36.272Z,99122.31
2023-03-07T06:12:38.824Z,99112.66
2023-03-07T06:17:40.874Z,99109.28
2023-03-07T06:22:42.717Z,99115.13
2023-03-07T06:27:44.733Z,99105.69
2023-03-07T06:32:46.798Z,99109.59
2023-03-07T06:37:50.542Z,99106.78
2023-03-07T06:42:53.929Z,99113.88
2023-03-07T06:47:56.040Z,99106.03
2023-03-07T06:52:57.940Z,99099.88
2023-03-07T06:57:59.766Z,99092.78
2023-03-07T07:03:01.859Z,99084.84
2023-03-07T07:08:03.936Z,99094.47
2023-03-07T07:13:06.210Z,99099.88
2023-03-07T07:18:10.408Z,99104.00
2023-03-07T07:23:13.202Z,99096.19
2023-03-07T07:28:15.179Z,99105.81
2023-03-07T07:33:17.475Z,99106.03
2023-03-07T07:38:19.401Z,99105.06
2023-03-07T07:43:21.145Z,99104.44
2023-03-07T07:48:23.283Z,99103.28
2023-03-07T07:53:25.129Z,99101.78
2023-03-07T07:58:27.137Z,99106.22
2023-03-07T08:03:29.201Z,99093.94
2023-03-07T08:08:31.340Z,99111.09
2023-03-07T08:13:33.564Z,99113.97
2023-03-07T08:18:35.478Z,99121.81
2023-03-07T08:23:40.004Z,99135.16
2023-03-07T08:28:42.487Z,99124.47
2023-03-07T08:33:44.577Z,99113.75
2023-03-07T08:38:52.154Z,99115.56
2023-03-07T08:43:56.517Z,99132.50
2023-03-07T08:48:58.907Z,99125.31
2023-03-07T08:54:00.693Z,99124.47
2023-03-07T08:59:04.452Z,99115.66
2023-03-07T09:04:06.870Z,99121.69
2023-03-07T09:09:09.138Z,99106.78
2023-03-07T09:14:11.312Z,99112.06
2023-03-07T09:19:13.319Z,99111.22
2023-03-07T09:24:15.527Z,99124.00
2023-03-07T09:29:17.332Z,99124.66
2023-03-07T09:34:19.438Z,99118.50
2023-03-07T09:39:21.302Z,99132.69
2023-03-07T09:44:44.866Z,99124.00
2023-03-07T09:49:54.370Z,99126.47
2023-03-07T09:55:05.282Z,99116.81
2023-03-07T10:00:21.972Z,99126.47
2023-03-07T10:05:24.227Z,99114.91
2023-03-07T10:10:37.281Z,99124.13
2023-03-07T10:15:47.108Z,99126.47
2023-03-07T10:21:10.850Z,99125.72
2023-03-07T10:26:21.880Z,99116.94
2023-03-07T10:31:32.521Z,99115.13
2023-03-07T10:36:49.044Z,99108.84
2023-03-07T10:41:55.251Z,99110.56
2023-03-07T10:46:59.134Z,99108.13
2023-03-07T10:52:07.036Z,99113.22
2023-03-07T10:57:15.092Z,99118.59
2023-03-07T11:02:40.660Z,99113.41
2023-03-07T11:07:42.966Z,99118.50
2023-03-07T11:12:46.436Z,99108.13
2023-03-07T11:17:49.676Z,99109.81
2023-03-07T11:23:14.400Z,99105.78
2023-03-07T11:28:42.480Z,99109.41
2023-03-07T11:34:02.828Z,99102.94
2023-03-07T11:39:18.346Z,99104.72
2023-03-07T11:44:57.673Z,99112.88
2023-03-07T11:50:22.156Z,99110.00
2023-03-07T11:56:21.401Z,99100.72
2023-03-07T12:01:25.938Z,99097.84
2023-03-07T12:06:34.149Z,99094.13
2023-03-07T12:11:44.848Z,99096.78
2023-03-07T12:16:59.199Z,99094.13
2023-03-07T12:22:16.183Z,99101.44
2023-03-07T12:27:30.154Z,99097.00
2023-03-07T12:32:35.856Z,99094.34
2023-03-07T12:37:44.719Z,99103.78
2023-03-07T12:43:05.673Z,99107.09
2023-03-07T12:48:37.125Z,99098.69
2023-03-07T12:53:55.925Z,99109.06
2023-03-07T12:59:06.120Z,99111.91
2023-03-07T13:04:23.232Z,99115.53
2023-03-07T13:09:26.952Z,99112.66
2023-03-07T13:14:49.133Z,99113.94
2023-03-07T13:19:53.347Z,99116.38
2023-03-07T13:25:16.056Z,99119.84
2023-03-07T13:30:29.205Z,99126.13
2023-03-07T13:35:34.381Z,99121.75
2023-03-07T13:40:37.130Z,99122.50
2023-03-07T13:45:39.127Z,99126.97
2023-03-07T13:50:53.332Z,99135.97
2023-03-07T13:56:16.790Z,99130.66
2023-03-07T14:01:25.223Z,99133.31
2023-03-07T14:06:36.578Z,99133.22
2023-03-07T14:12:02.898Z,99141.25
2023-03-07T14:17:38.566Z,99144.00
2023-03-07T14:22:54.876Z,99162.59
2023-03-07T14:28:01.202Z,99153.66
2023-03-07T14:33:03.473Z,99159.88
2023-03-07T14:38:21.768Z,99166.22
2023-03-07T14:43:50.957Z,99165.47
2023-03-07T14:48:58.769Z,99159.97
2023-03-07T14:54:07.574Z,99159.25
2023-03-07T14:59:26.096Z,99152.78
2023-03-07T15:04:33.675Z,99161.59
2023-03-07T15:09:35.836Z,99162.81
2023-03-07T15:14:47.775Z,99163.66
2023-03-07T15:20:18.874Z,99169.72
2023-03-07T15:25:25.681Z,99166.22
2023-03-07T15:30:38.233Z,99162.06
2023-03-07T15:35:41.063Z,99166.97
2023-03-07T15:40:43.527Z,99163.47
2023-03-07T15:46:04.073Z,99175.13
2023-03-07T15:51:15.686Z,99170.56
2023-03-07T15:56:30.815Z,99179.47
2023-03-07T16:01:32.976Z,99178.63
2023-03-07T16:06:42.494Z,99190.44
2023-03-07T16:11:46.224Z,99193.94
2023-03-07T16:16:48.491Z,99193.09
2023-03-07T16:21:50.441Z,99201.13
2023-03-07T16:26:52.417Z,99209.06
2023-03-07T16:31:54.466Z,99208.22
2023-03-07T16:36:56.593Z,99209.81
2023-03-07T16:41:58.529Z,99218.50
2023-03-07T16:47:06.619Z,99221.16
2023-03-07T16:52:12.505Z,99232.03
2023-03-07T16:57:17.072Z,99242.44
2023-03-07T17:02:21.402Z,99248.66
2023-03-07T17:07:24.152Z,99248.47
2023-03-07T17:12:26.064Z,99257.44
2023-03-07T17:17:33.450Z,99269.66
2023-03-07T17:22:35.434Z,99279.38
2023-03-07T17:27:41.343Z,99291.75
2023-03-07T17:32:47.021Z,99289.66
2023-03-07T17:37:52.014Z,99301.06
2023-03-07T17:42:55.157Z,99314.72
2023-03-07T17:47:57.360Z,99325.19
2023-03-07T17:52:59.435Z,99337.59
2023-03-07T17:58:01.376Z,99346.78
2023-03-07T18:03:03.662Z,99355.94
2023-03-07T18:08:05.954Z,99351.78
2023-03-07T18:13:09.720Z,99344.38
2023-03-07T18:18:11.756Z,99347.84
2023-03-07T18:23:13.957Z,99356.53
2023-03-07T18:28:15.954Z,99365.44
2023-03-07T18:33:17.927Z,99369.97
2023-03-07T18:38:20.453Z,99377.69
2023-03-07T18:43:22.635Z,99396.03
2023-03-07T18:48:26.016Z,99396.56
2023-03-07T18:53:28.365Z,99408.88
2023-03-07T18:58:30.865Z,99409.72
2023-03-07T19:03:32.693Z,99425.31
2023-03-07T19:08:35.280Z,99433.75
2023-03-07T19:13:37.208Z,99439.69
2023-03-07T19:18:39.383Z,99448.75
2023-03-07T19:23:41.219Z,99447.53
2023-03-07T19:28:43.920Z,99455.44
2023-03-07T19:33:47.274Z,99455.47
2023-03-07T19:38:50.859Z,99470.22
2023-03-07T19:43:53.208Z,99467.78
2023-03-07T19:48:56.013Z,99458.03
2023-03-07T19:53:59.009Z,99451.78
2023-03-07T19:59:02.926Z,99450.38
2023-03-07T20:04:06.609Z,99443.56
2023-03-07T20:09:10.101Z,99467.97
2023-03-07T20:14:12.476Z,99469.75
2023-03-07T20:19:14.861Z,99470.25
2023-03-07T20:24:18.504Z,99462.47
2023-03-07T20:29:20.422Z,99455.13
2023-03-07T20:34:25.411Z,99454.06
2023-03-07T20:39:27.494Z,99464.56
2023-03-07T20:44:29.384Z,99467.22
2023-03-07T20:49:31.183Z,99465.84
2023-03-07T20:54:33.200Z,99471.84
2023-03-07T20:59:34.953Z,99467.06
2023-03-07T21:04:36.874Z,99470.28
2023-03-07T21:09:38.909Z,99467.06
2023-03-07T21:14:40.912Z,99461.22
2023-03-07T21:19:42.697Z,99466.16
2023-03-07T21:24:44.821Z,99466.66
2023-03-07T21:29:46.608Z,99470.28
2023-03-07T21:34:48.624Z,99484.31
2023-03-07T21:39:50.417Z,99487.44
2023-03-07T21:44:52.313Z,99499.16
2023-03-07T21:49:54.340Z,99502.34
2023-03-07T21:54:56.335Z,99499.31
2023-03-07T21:59:58.225Z,99500.00
2023-03-07T22:04:59.964Z,99510.22
2023-03-07T22:10:01.984Z,99522.06
2023-03-07T22:15:04.716Z,99508.84
2023-03-07T22:20:07.008Z,99510.91
2023-03-07T22:25:09.717Z,99514.59
2023-03-07T22:30:12.072Z,99509.22
2023-03-07T22:35:14.056Z,99498.91
2023-03-07T22:40:15.971Z,99506.56
2023-03-07T22:45:17.923Z,99506.72
2023-03-07T22:50:19.993Z,99510.34
2023-03-07T22:55:22.544Z,99503.53
2023-03-07T23:00:24.473Z,99510.50
2023-03-07T23:05:26.307Z,99505.41
2023-03-07T23:10:30.052Z,99501.81
2023-03-07T23:15:32.088Z,99491.81
2023-03-07T23:20:35.930Z,99494.53
2023-03-07T23:25:44.654Z,99489.31
2023-03-07T23:30:46.713Z,99482.44
2023-03-07T23:35:48.869Z,99472.88
2023-03-07T23:40:50.989Z,99473.72
2023-03-07T23:45:53.112Z,99472.97
2023-03-07T23:50:55.082Z,99464.09
2023-03-07T23:55:57.156Z,99473.72
